sensor_id;sensor_type;location;lat;lon;timestamp;pressure;altitude;pressure_sealevel;temperature;humidity
51439;BME280;38816;51.142;-0.974;2022-07-21T00:01:17;100546.28;;;18.16;65.53
51439;BME280;38816;51.142;-0.974;2022-07-21T00:03:42;100541.03;;;18.19;64.89
51439;BME280;38816;51.142;-0.974;2022-07-21T00:06:08;100547.13;;;18.16;64.83
51439;BME280;38816;51.142;-0.974;2022-07-21T00:08:33;100546.38;;;18.07;65.24
51439;BME280;38816;51.142;-0.974;2022-07-21T00:10:59;100554.22;;;17.99;65.56
51439;BME280;38816;51.142;-0.974;2022-07-21T00:13:25;100553.41;;;17.95;65.57
51439;BME280;38816;51.142;-0.974;2022-07-21T00:15:50;100556.94;;;17.88;65.76
51439;BME280;38816;51.142;-0.974;2022-07-21T00:18:17;100551.78;;;17.82;65.67
51439;BME280;38816;51.142;-0.974;2022-07-21T00:20:43;100554.41;;;17.81;65.98
51439;BME280;38816;51.142;-0.974;2022-07-21T00:23:08;100544.09;;;17.65;66.06
51439;BME280;38816;51.142;-0.974;2022-07-21T00:25:34;100544.97;;;17.63;66.48
51439;BME280;38816;51.142;-0.974;2022-07-21T00:27:59;100545.03;;;17.54;66.63
51439;BME280;38816;51.142;-0.974;2022-07-21T00:30:25;100551.09;;;17.54;67.27
51439;BME280;38816;51.142;-0.974;2022-07-21T00:32:50;100549.41;;;17.49;67.03
51439;BME280;38816;51.142;-0.974;2022-07-21T00:35:15;100544.28;;;17.39;67.59
51439;BME280;38816;51.142;-0.974;2022-07-21T00:37:41;100539.97;;;17.35;67.30
51439;BME280;38816;51.142;-0.974;2022-07-21T00:40:09;100552.09;;;17.33;67.96
51439;BME280;38816;51.142;-0.974;2022-07-21T00:42:36;100550.41;;;17.29;67.70
51439;BME280;38816;51.142;-0.974;2022-07-21T00:45:05;100543.53;;;17.19;67.79
51439;BME280;38816;51.142;-0.974;2022-07-21T00:47:32;100548.72;;;17.19;67.44
51439;BME280;38816;51.142;-0.974;2022-07-21T00:50:00;100533.22;;;17.07;67.54
51439;BME280;38816;51.142;-0.974;2022-07-21T00:52:25;100534.94;;;17.08;67.75
51439;BME280;38816;51.142;-0.974;2022-07-21T00:54:51;100533.28;;;16.94;68.00
51439;BME280;38816;51.142;-0.974;2022-07-21T00:57:17;100534.19;;;16.83;68.89
51439;BME280;38816;51.142;-0.974;2022-07-21T00:59:43;100541.13;;;16.78;68.74
51439;BME280;38816;51.142;-0.974;2022-07-21T01:02:10;100559.28;;;16.79;68.58
51439;BME280;38816;51.142;-0.974;2022-07-21T01:04:35;100561.91;;;16.75;69.23
51439;BME280;38816;51.142;-0.974;2022-07-21T01:07:03;100561.91;;;16.70;68.91
51439;BME280;38816;51.142;-0.974;2022-07-21T01:09:29;100562.81;;;16.72;68.50
51439;BME280;38816;51.142;-0.974;2022-07-21T01:11:54;100554.97;;;16.66;68.82
51439;BME280;38816;51.142;-0.974;2022-07-21T01:14:20;100559.34;;;16.67;68.60
51439;BME280;38816;51.142;-0.974;2022-07-21T01:16:46;100575.78;;;16.75;68.54
51439;BME280;38816;51.142;-0.974;2022-07-21T01:19:12;100569.69;;;16.70;68.82
51439;BME280;38816;51.142;-0.974;2022-07-21T01:21:40;100564.56;;;16.58;68.91
51439;BME280;38816;51.142;-0.974;2022-07-21T01:24:07;100563.72;;;16.50;69.21
51439;BME280;38816;51.142;-0.974;2022-07-21T01:26:42;100574.09;;;16.53;69.13
51439;BME280;38816;51.142;-0.974;2022-07-21T01:29:09;100566.28;;;16.43;68.94
51439;BME280;38816;51.142;-0.974;2022-07-21T01:31:36;100574.09;;;16.48;68.87
51439;BME280;38816;51.142;-0.974;2022-07-21T01:34:03;100561.16;;;16.28;68.93
51439;BME280;38816;51.142;-0.974;2022-07-21T01:36:28;100577.59;;;16.27;69.14
51439;BME280;38816;51.142;-0.974;2022-07-21T01:38:54;100577.59;;;16.23;69.06
51439;BME280;38816;51.142;-0.974;2022-07-21T01:41:38;100589.69;;;16.19;69.16
51439;BME280;38816;51.142;-0.974;2022-07-21T01:44:06;100581.94;;;16.08;69.70
51439;BME280;38816;51.142;-0.974;2022-07-21T01:46:35;100594.03;;;16.06;69.48
51439;BME280;38816;51.142;-0.974;2022-07-21T01:49:01;100603.56;;;16.04;69.70
51439;BME280;38816;51.142;-0.974;2022-07-21T01:51:27;100579.34;;;15.87;69.68
51439;BME280;38816;51.142;-0.974;2022-07-21T01:53:52;100593.16;;;15.89;69.85
51439;BME280;38816;51.142;-0.974;2022-07-21T01:56:20;100600.09;;;15.85;70.45
51439;BME280;38816;51.142;-0.974;2022-07-21T01:58:46;100579.31;;;15.70;70.62
51439;BME280;38816;51.142;-0.974;2022-07-21T02:01:49;100594.03;;;15.74;70.88
51439;BME280;38816;51.142;-0.974;2022-07-21T02:04:14;100593.16;;;15.69;71.40
51439;BME280;38816;51.142;-0.974;2022-07-21T02:06:40;100593.97;;;15.62;71.85
51439;BME280;38816;51.142;-0.974;2022-07-21T02:09:05;100599.16;;;15.63;72.07
51439;BME280;38816;51.142;-0.974;2022-07-21T02:11:32;100595.69;;;15.55;71.91
51439;BME280;38816;51.142;-0.974;2022-07-21T02:13:57;100586.19;;;15.50;71.97
51439;BME280;38816;51.142;-0.974;2022-07-21T02:16:23;100593.97;;;15.56;71.83
51439;BME280;38816;51.142;-0.974;2022-07-21T02:18:49;100587.03;;;15.52;71.99
51439;BME280;38816;51.142;-0.974;2022-07-21T02:21:14;100597.41;;;15.52;72.19
51439;BME280;38816;51.142;-0.974;2022-07-21T02:23:40;100585.31;;;15.41;72.30
51439;BME280;38816;51.142;-0.974;2022-07-21T02:26:05;100605.19;;;15.53;71.85
51439;BME280;38816;51.142;-0.974;2022-07-21T02:28:31;100593.13;;;15.54;72.02
51439;BME280;38816;51.142;-0.974;2022-07-21T02:30:56;100591.38;;;15.54;71.94
51439;BME280;38816;51.142;-0.974;2022-07-21T02:33:22;100598.28;;;15.60;72.05
51439;BME280;38816;51.142;-0.974;2022-07-21T02:35:47;100595.72;;;15.58;71.59
51439;BME280;38816;51.142;-0.974;2022-07-21T02:38:13;100593.09;;;15.52;71.96
51439;BME280;38816;51.142;-0.974;2022-07-21T02:40:39;100586.16;;;15.48;72.67
51439;BME280;38816;51.142;-0.974;2022-07-21T02:43:05;100582.69;;;15.38;72.75
51439;BME280;38816;51.142;-0.974;2022-07-21T02:45:31;100587.00;;;15.33;72.66
51439;BME280;38816;51.142;-0.974;2022-07-21T02:48:02;100597.38;;;15.27;73.29
51439;BME280;38816;51.142;-0.974;2022-07-21T02:50:30;100601.63;;;15.16;74.20
51439;BME280;38816;51.142;-0.974;2022-07-21T02:52:58;100599.00;;;15.07;74.30
51439;BME280;38816;51.142;-0.974;2022-07-21T02:55:24;100600.69;;;14.99;74.91
51439;BME280;38816;51.142;-0.974;2022-07-21T02:58:18;100602.41;;;14.93;75.04
51439;BME280;38816;51.142;-0.974;2022-07-21T03:00:48;100589.38;;;14.77;75.79
51439;BME280;38816;51.142;-0.974;2022-07-21T03:03:14;100594.50;;;14.67;75.90
51439;BME280;38816;51.142;-0.974;2022-07-21T03:05:40;100584.97;;;14.59;76.23
51439;BME280;38816;51.142;-0.974;2022-07-21T03:08:07;100610.91;;;14.66;76.29
51439;BME280;38816;51.142;-0.974;2022-07-21T03:10:33;100592.69;;;14.54;77.45
51439;BME280;38816;51.142;-0.974;2022-07-21T03:12:59;100585.69;;;14.39;77.78
51439;BME280;38816;51.142;-0.974;2022-07-21T03:15:24;100597.75;;;14.39;78.07
51439;BME280;38816;51.142;-0.974;2022-07-21T03:17:52;100602.03;;;14.35;78.34
51439;BME280;38816;51.142;-0.974;2022-07-21T03:20:17;100598.56;;;14.30;78.61
51439;BME280;38816;51.142;-0.974;2022-07-21T03:22:43;100589.88;;;14.22;78.85
51439;BME280;38816;51.142;-0.974;2022-07-21T03:25:08;100593.34;;;14.21;79.09
51439;BME280;38816;51.142;-0.974;2022-07-21T03:27:34;100601.97;;;14.23;79.08
51439;BME280;38816;51.142;-0.974;2022-07-21T03:30:06;100598.47;;;14.16;79.54
51439;BME280;38816;51.142;-0.974;2022-07-21T03:32:32;100599.28;;;14.12;79.56
51439;BME280;38816;51.142;-0.974;2022-07-21T03:34:58;100598.41;;;14.09;80.13
51439;BME280;38816;51.142;-0.974;2022-07-21T03:37:23;100592.34;;;14.01;80.02
51439;BME280;38816;51.142;-0.974;2022-07-21T03:39:49;100600.91;;;13.98;80.56
51439;BME280;38816;51.142;-0.974;2022-07-21T03:42:14;100586.19;;;13.89;80.87
51439;BME280;38816;51.142;-0.974;2022-07-21T03:44:40;100605.22;;;13.96;80.94
51439;BME280;38816;51.142;-0.974;2022-07-21T03:47:05;100606.03;;;13.92;80.97
51439;BME280;38816;51.142;-0.974;2022-07-21T03:49:31;100602.41;;;13.73;82.09
51439;BME280;38816;51.142;-0.974;2022-07-21T03:51:56;100598.09;;;13.69;82.39
51439;BME280;38816;51.142;-0.974;2022-07-21T03:54:22;100596.38;;;13.71;82.24
51439;BME280;38816;51.142;-0.974;2022-07-21T03:56:47;100605.84;;;13.69;82.36
51439;BME280;38816;51.142;-0.974;2022-07-21T03:59:12;100604.94;;;13.65;82.48
51439;BME280;38816;51.142;-0.974;2022-07-21T04:01:38;100609.25;;;13.66;82.69
51439;BME280;38816;51.142;-0.974;2022-07-21T04:04:04;100610.06;;;13.64;82.79
51439;BME280;38816;51.142;-0.974;2022-07-21T04:06:30;100606.56;;;13.56;83.13
51439;BME280;38816;51.142;-0.974;2022-07-21T04:08:55;100613.50;;;13.60;83.84
51439;BME280;38816;51.142;-0.974;2022-07-21T04:11:21;100601.41;;;13.56;83.87
51439;BME280;38816;51.142;-0.974;2022-07-21T04:13:46;100609.97;;;13.55;83.71
51439;BME280;38816;51.142;-0.974;2022-07-21T04:16:12;100610.88;;;13.57;83.79
51439;BME280;38816;51.142;-0.974;2022-07-21T04:18:37;100608.25;;;13.54;83.99
51439;BME280;38816;51.142;-0.974;2022-07-21T04:21:03;100621.22;;;13.57;83.98
51439;BME280;38816;51.142;-0.974;2022-07-21T04:23:28;100601.31;;;13.50;83.71
51439;BME280;38816;51.142;-0.974;2022-07-21T04:25:54;100621.16;;;13.54;84.42
51439;BME280;38816;51.142;-0.974;2022-07-21T04:28:20;100617.72;;;13.52;84.35
51439;BME280;38816;51.142;-0.974;2022-07-21T04:30:45;100613.38;;;13.48;84.19
51439;BME280;38816;51.142;-0.974;2022-07-21T04:33:11;100629.72;;;13.50;84.72
51439;BME280;38816;51.142;-0.974;2022-07-21T04:35:36;100624.59;;;13.51;84.39
51439;BME280;38816;51.142;-0.974;2022-07-21T04:38:02;100618.50;;;13.46;84.54
51439;BME280;38816;51.142;-0.974;2022-07-21T04:40:27;100632.31;;;13.50;84.56
51439;BME280;38816;51.142;-0.974;2022-07-21T04:42:53;100626.25;;;13.46;84.73
51439;BME280;38816;51.142;-0.974;2022-07-21T04:45:19;100626.28;;;13.48;84.95
51439;BME280;38816;51.142;-0.974;2022-07-21T04:47:55;100635.75;;;13.49;84.76
51439;BME280;38816;51.142;-0.974;2022-07-21T04:50:23;100626.28;;;13.48;84.92
51439;BME280;38816;51.142;-0.974;2022-07-21T04:52:49;100636.66;;;13.55;84.80
51439;BME280;38816;51.142;-0.974;2022-07-21T04:55:15;100635.78;;;13.52;84.64
51439;BME280;38816;51.142;-0.974;2022-07-21T04:57:43;100624.59;;;13.53;84.72
51439;BME280;38816;51.142;-0.974;2022-07-21T05:00:11;100622.94;;;13.58;84.62
51439;BME280;38816;51.142;-0.974;2022-07-21T05:02:38;100629.00;;;13.60;84.82
51439;BME280;38816;51.142;-0.974;2022-07-21T05:05:04;100637.66;;;13.68;84.65
51439;BME280;38816;51.142;-0.974;2022-07-21T05:07:30;100638.53;;;13.68;84.87
51439;BME280;38816;51.142;-0.974;2022-07-21T05:09:56;100640.28;;;13.71;84.55
51439;BME280;38816;51.142;-0.974;2022-07-21T05:12:26;100635.09;;;13.68;84.93
51439;BME280;38816;51.142;-0.974;2022-07-21T05:14:52;100645.50;;;13.77;84.76
51439;BME280;38816;51.142;-0.974;2022-07-21T05:17:17;100651.56;;;13.81;84.92
51439;BME280;38816;51.142;-0.974;2022-07-21T05:19:43;100645.63;;;13.89;84.74
51439;BME280;38816;51.142;-0.974;2022-07-21T05:22:10;100646.53;;;13.93;84.09
51439;BME280;38816;51.142;-0.974;2022-07-21T05:24:36;100659.56;;;14.05;83.89
51439;BME280;38816;51.142;-0.974;2022-07-21T05:27:01;100654.44;;;14.10;83.83
51439;BME280;38816;51.142;-0.974;2022-07-21T05:29:27;100654.53;;;14.22;82.83
51439;BME280;38816;51.142;-0.974;2022-07-21T05:31:52;100662.41;;;14.34;82.46
51439;BME280;38816;51.142;-0.974;2022-07-21T05:34:18;100665.03;;;14.45;82.11
51439;BME280;38816;51.142;-0.974;2022-07-21T05:36:43;100678.16;;;14.62;81.25
51439;BME280;38816;51.142;-0.974;2022-07-21T05:39:09;100689.41;;;14.70;81.02
51439;BME280;38816;51.142;-0.974;2022-07-21T05:41:34;100681.72;;;14.79;80.35
51439;BME280;38816;51.142;-0.974;2022-07-21T05:43:59;100684.34;;;14.87;80.18
51439;BME280;38816;51.142;-0.974;2022-07-21T05:46:25;100670.53;;;14.82;79.22
51439;BME280;38816;51.142;-0.974;2022-07-21T05:48:53;100683.53;;;14.96;79.26
51439;BME280;38816;51.142;-0.974;2022-07-21T05:51:18;100685.28;;;15.00;79.54
51439;BME280;38816;51.142;-0.974;2022-07-21T05:53:44;100690.53;;;15.12;79.22
51439;BME280;38816;51.142;-0.974;2022-07-21T05:56:09;100698.38;;;15.27;79.21
51439;BME280;38816;51.142;-0.974;2022-07-21T05:58:35;100702.72;;;15.39;78.01
51439;BME280;38816;51.142;-0.974;2022-07-21T06:01:00;100696.72;;;15.41;77.31
51439;BME280;38816;51.142;-0.974;2022-07-21T06:03:44;100701.91;;;15.44;77.04
51439;BME280;38816;51.142;-0.974;2022-07-21T06:06:11;100707.97;;;15.56;76.63
51439;BME280;38816;51.142;-0.974;2022-07-21T06:08:39;100707.13;;;15.61;76.76
51439;BME280;38816;51.142;-0.974;2022-07-21T06:11:07;100706.31;;;15.64;76.37
51439;BME280;38816;51.142;-0.974;2022-07-21T06:13:33;100708.94;;;15.75;75.86
51439;BME280;38816;51.142;-0.974;2022-07-21T06:15:58;100715.00;;;15.84;75.97
51439;BME280;38816;51.142;-0.974;2022-07-21T06:18:24;100720.22;;;15.97;74.59
51439;BME280;38816;51.142;-0.974;2022-07-21T06:20:49;100717.66;;;16.04;73.83
51439;BME280;38816;51.142;-0.974;2022-07-21T06:23:15;100724.56;;;16.11;73.47
51439;BME280;38816;51.142;-0.974;2022-07-21T06:25:41;100722.84;;;16.16;73.34
51439;BME280;38816;51.142;-0.974;2022-07-21T06:28:06;100717.69;;;16.27;72.84
51439;BME280;38816;51.142;-0.974;2022-07-21T06:30:32;100716.78;;;16.25;72.71
51439;BME280;38816;51.142;-0.974;2022-07-21T06:32:57;100717.66;;;16.29;72.85
51439;BME280;38816;51.142;-0.974;2022-07-21T06:35:23;100728.06;;;16.45;72.24
51439;BME280;38816;51.142;-0.974;2022-07-21T06:37:48;100734.97;;;16.56;72.07
51439;BME280;38816;51.142;-0.974;2022-07-21T06:40:14;100731.53;;;16.55;71.57
51439;BME280;38816;51.142;-0.974;2022-07-21T06:42:39;100734.13;;;16.55;71.59
51439;BME280;38816;51.142;-0.974;2022-07-21T06:45:05;100748.81;;;16.64;72.12
51439;BME280;38816;51.142;-0.974;2022-07-21T06:47:31;100736.72;;;16.74;71.79
51439;BME280;38816;51.142;-0.974;2022-07-21T06:49:57;100737.56;;;16.83;71.08
51439;BME280;38816;51.142;-0.974;2022-07-21T06:52:28;100742.78;;;16.86;70.93
51439;BME280;38816;51.142;-0.974;2022-07-21T06:54:54;100741.06;;;16.85;70.42
51439;BME280;38816;51.142;-0.974;2022-07-21T06:57:19;100748.84;;;16.90;70.72
51439;BME280;38816;51.142;-0.974;2022-07-21T06:59:44;100754.03;;;16.94;70.53
51439;BME280;38816;51.142;-0.974;2022-07-21T07:02:10;100755.75;;;16.91;70.88
51439;BME280;38816;51.142;-0.974;2022-07-21T07:04:35;100760.06;;;16.92;71.07
51439;BME280;38816;51.142;-0.974;2022-07-21T07:07:01;100746.25;;;16.85;71.05
51439;BME280;38816;51.142;-0.974;2022-07-21T07:09:26;100755.78;;;16.89;71.28
51439;BME280;38816;51.142;-0.974;2022-07-21T07:11:52;100752.28;;;16.87;71.52
51439;BME280;38816;51.142;-0.974;2022-07-21T07:14:18;100762.66;;;16.96;71.74
51439;BME280;38816;51.142;-0.974;2022-07-21T07:16:44;100746.22;;;17.01;71.39
51439;BME280;38816;51.142;-0.974;2022-07-21T07:19:10;100766.13;;;17.09;71.14
51439;BME280;38816;51.142;-0.974;2022-07-21T07:21:35;100767.84;;;17.16;71.30
51439;BME280;38816;51.142;-0.974;2022-07-21T07:24:01;100760.03;;;17.19;71.10
51439;BME280;38816;51.142;-0.974;2022-07-21T07:26:27;100764.38;;;17.20;70.60
51439;BME280;38816;51.142;-0.974;2022-07-21T07:28:53;100761.75;;;17.27;71.21
51439;BME280;38816;51.142;-0.974;2022-07-21T07:31:18;100756.53;;;17.34;70.67
51439;BME280;38816;51.142;-0.974;2022-07-21T07:33:44;100770.34;;;17.50;70.67
51439;BME280;38816;51.142;-0.974;2022-07-21T07:36:09;100762.50;;;17.65;70.12
51439;BME280;38816;51.142;-0.974;2022-07-21T07:38:39;100759.00;;;17.76;69.15
51439;BME280;38816;51.142;-0.974;2022-07-21T07:41:05;100752.03;;;17.82;68.87
51439;BME280;38816;51.142;-0.974;2022-07-21T07:43:30;100758.06;;;17.90;68.18
51439;BME280;38816;51.142;-0.974;2022-07-21T07:45:56;100751.09;;;17.97;67.97
51439;BME280;38816;51.142;-0.974;2022-07-21T07:48:21;100751.06;;;18.02;68.05
51439;BME280;38816;51.142;-0.974;2022-07-21T07:50:47;100755.38;;;18.07;68.08
51439;BME280;38816;51.142;-0.974;2022-07-21T07:53:12;100749.25;;;18.16;67.55
51439;BME280;38816;51.142;-0.974;2022-07-21T07:55:38;100754.38;;;18.23;67.40
51439;BME280;38816;51.142;-0.974;2022-07-21T07:58:04;100751.75;;;18.33;67.19
51439;BME280;38816;51.142;-0.974;2022-07-21T08:00:29;100743.88;;;18.39;66.93
51439;BME280;38816;51.142;-0.974;2022-07-21T08:02:55;100758.47;;;18.60;66.92
51439;BME280;38816;51.142;-0.974;2022-07-21T08:05:20;100763.59;;;18.70;66.13
51439;BME280;38816;51.142;-0.974;2022-07-21T08:07:45;100761.78;;;18.80;66.08
51439;BME280;38816;51.142;-0.974;2022-07-21T08:10:12;100754.66;;;19.01;66.01
51439;BME280;38816;51.142;-0.974;2022-07-21T08:12:39;100761.38;;;19.21;65.15
51439;BME280;38816;51.142;-0.974;2022-07-21T08:15:05;100749.94;;;19.33;64.22
51439;BME280;38816;51.142;-0.974;2022-07-21T08:17:31;100759.25;;;19.54;63.58
51439;BME280;38816;51.142;-0.974;2022-07-21T08:19:56;100754.00;;;19.60;62.75
51439;BME280;38816;51.142;-0.974;2022-07-21T08:22:22;100763.50;;;19.66;62.64
51439;BME280;38816;51.142;-0.974;2022-07-21T08:24:47;100762.75;;;19.55;62.14
51439;BME280;38816;51.142;-0.974;2022-07-21T08:27:13;100775.94;;;19.39;62.20
51439;BME280;38816;51.142;-0.974;2022-07-21T08:29:38;100761.31;;;19.26;63.87
51439;BME280;38816;51.142;-0.974;2022-07-21T08:32:04;100759.34;;;19.45;63.91
51439;BME280;38816;51.142;-0.974;2022-07-21T08:34:30;100759.22;;;19.60;62.62
51439;BME280;38816;51.142;-0.974;2022-07-21T08:36:56;100767.75;;;19.71;63.12
51439;BME280;38816;51.142;-0.974;2022-07-21T08:39:22;100773.56;;;19.93;62.14
51439;BME280;38816;51.142;-0.974;2022-07-21T08:41:47;100758.56;;;20.09;61.40
51439;BME280;38816;51.142;-0.974;2022-07-21T08:44:13;100766.94;;;20.30;61.66
51439;BME280;38816;51.142;-0.974;2022-07-21T08:46:41;100774.41;;;20.56;60.71
51439;BME280;38816;51.142;-0.974;2022-07-21T08:49:08;100773.25;;;20.73;60.11
51439;BME280;38816;51.142;-0.974;2022-07-21T08:51:34;100766.03;;;20.88;59.91
51439;BME280;38816;51.142;-0.974;2022-07-21T08:54:01;100771.91;;;21.01;59.74
51439;BME280;38816;51.142;-0.974;2022-07-21T08:56:26;100768.38;;;21.03;59.71
51439;BME280;38816;51.142;-0.974;2022-07-21T08:58:52;100762.91;;;21.15;59.93
51439;BME280;38816;51.142;-0.974;2022-07-21T09:01:17;100764.66;;;21.16;59.72
51439;BME280;38816;51.142;-0.974;2022-07-21T09:03:43;100765.53;;;21.17;59.81
51439;BME280;38816;51.142;-0.974;2022-07-21T09:06:13;100749.94;;;21.11;60.18
51439;BME280;38816;51.142;-0.974;2022-07-21T09:08:46;100762.81;;;21.21;60.26
51439;BME280;38816;51.142;-0.974;2022-07-21T09:11:20;100755.88;;;21.19;59.71
51439;BME280;38816;51.142;-0.974;2022-07-21T09:13:49;100750.81;;;21.10;60.32
51439;BME280;38816;51.142;-0.974;2022-07-21T09:16:34;100750.97;;;21.02;60.13
51439;BME280;38816;51.142;-0.974;2022-07-21T09:19:00;100745.81;;;20.99;61.03
51439;BME280;38816;51.142;-0.974;2022-07-21T09:21:25;100753.47;;;21.08;60.92
51439;BME280;38816;51.142;-0.974;2022-07-21T09:23:51;100747.44;;;21.05;60.73
51439;BME280;38816;51.142;-0.974;2022-07-21T09:26:16;100756.09;;;21.07;60.72
51439;BME280;38816;51.142;-0.974;2022-07-21T09:28:42;100754.38;;;21.06;61.11
51439;BME280;38816;51.142;-0.974;2022-07-21T09:31:09;100750.81;;;21.10;60.97
51439;BME280;38816;51.142;-0.974;2022-07-21T09:33:43;100758.31;;;21.28;60.74
51439;BME280;38816;51.142;-0.974;2022-07-21T09:36:17;100739.06;;;21.34;60.37
51439;BME280;38816;51.142;-0.974;2022-07-21T09:38:50;100759.13;;;21.33;59.93
51439;BME280;38816;51.142;-0.974;2022-07-21T09:41:19;100743.66;;;21.21;60.57
51439;BME280;38816;51.142;-0.974;2022-07-21T09:43:45;100757.41;;;21.32;61.10
51439;BME280;38816;51.142;-0.974;2022-07-21T09:46:16;100754.66;;;21.40;60.78
51439;BME280;38816;51.142;-0.974;2022-07-21T09:48:43;100737.09;;;21.45;60.90
51439;BME280;38816;51.142;-0.974;2022-07-21T09:51:28;100745.41;;;21.64;60.73
51439;BME280;38816;51.142;-0.974;2022-07-21T09:56:22;100747.91;;;22.09;59.37
51439;BME280;38816;51.142;-0.974;2022-07-21T09:58:50;100750.78;;;22.37;58.58
51439;BME280;38816;51.142;-0.974;2022-07-21T10:01:16;100744.84;;;22.66;58.28
51439;BME280;38816;51.142;-0.974;2022-07-21T10:03:46;100746.03;;;22.87;57.50
51439;BME280;38816;51.142;-0.974;2022-07-21T10:06:13;100751.44;;;23.15;57.02
51439;BME280;38816;51.142;-0.974;2022-07-21T10:08:39;100757.81;;;23.37;55.59
51439;BME280;38816;51.142;-0.974;2022-07-21T10:11:06;100743.91;;;23.63;55.57
51439;BME280;38816;51.142;-0.974;2022-07-21T10:13:31;100756.72;;;24.05;55.08
51439;BME280;38816;51.142;-0.974;2022-07-21T10:15:58;100746.47;;;24.24;53.44
51439;BME280;38816;51.142;-0.974;2022-07-21T10:18:28;100749.34;;;24.16;52.44
51439;BME280;38816;51.142;-0.974;2022-07-21T10:24:02;100761.47;;;24.20;52.68
51439;BME280;38816;51.142;-0.974;2022-07-21T10:26:30;100768.34;;;24.24;51.43
51439;BME280;38816;51.142;-0.974;2022-07-21T10:28:55;100760.41;;;23.98;53.10
51439;BME280;38816;51.142;-0.974;2022-07-21T10:31:25;100762.97;;;23.99;53.40
51439;BME280;38816;51.142;-0.974;2022-07-21T10:33:57;100767.00;;;24.11;53.41
51439;BME280;38816;51.142;-0.974;2022-07-21T10:41:48;100767.34;;;24.00;54.56
51439;BME280;38816;51.142;-0.974;2022-07-21T10:47:13;100764.72;;;24.29;54.25
51439;BME280;38816;51.142;-0.974;2022-07-21T10:49:57;100766.38;;;24.31;52.97
51439;BME280;38816;51.142;-0.974;2022-07-21T10:57:37;100770.25;;;23.91;54.26
51439;BME280;38816;51.142;-0.974;2022-07-21T11:00:22;100768.00;;;23.79;52.54
51439;BME280;38816;51.142;-0.974;2022-07-21T11:02:50;100763.03;;;23.68;54.12
51439;BME280;38816;51.142;-0.974;2022-07-21T11:05:16;100775.09;;;23.75;53.42
51439;BME280;38816;51.142;-0.974;2022-07-21T11:10:44;100752.31;;;24.06;53.36
51439;BME280;38816;51.142;-0.974;2022-07-21T11:13:09;100764.38;;;24.41;53.64
51439;BME280;38816;51.142;-0.974;2022-07-21T11:18:20;100758.00;;;24.99;51.20
51439;BME280;38816;51.142;-0.974;2022-07-21T11:21:09;100755.00;;;25.35;51.27
51439;BME280;38816;51.142;-0.974;2022-07-21T11:23:47;100746.59;;;25.71;50.30
51439;BME280;38816;51.142;-0.974;2022-07-21T11:26:19;100735.91;;;25.77;49.39
51439;BME280;38816;51.142;-0.974;2022-07-21T11:29:04;100741.72;;;25.85;48.70
51439;BME280;38816;51.142;-0.974;2022-07-21T11:31:30;100745.72;;;25.72;48.19
51439;BME280;38816;51.142;-0.974;2022-07-21T11:33:56;100751.09;;;25.69;49.36
51439;BME280;38816;51.142;-0.974;2022-07-21T11:36:28;100755.44;;;25.70;50.58
51439;BME280;38816;51.142;-0.974;2022-07-21T11:39:06;100752.53;;;25.78;50.28
51439;BME280;38816;51.142;-0.974;2022-07-21T11:41:34;100757.47;;;25.87;49.53
51439;BME280;38816;51.142;-0.974;2022-07-21T11:44:00;100745.94;;;25.66;48.29
51439;BME280;38816;51.142;-0.974;2022-07-21T11:46:26;100752.56;;;25.52;48.51
51439;BME280;38816;51.142;-0.974;2022-07-21T11:49:03;100753.38;;;25.31;48.87
51439;BME280;38816;51.142;-0.974;2022-07-21T11:51:29;100743.47;;;25.14;49.24
51439;BME280;38816;51.142;-0.974;2022-07-21T11:53:55;100741.25;;;25.27;49.93
51439;BME280;38816;51.142;-0.974;2022-07-21T11:56:20;100745.59;;;25.51;49.40
51439;BME280;38816;51.142;-0.974;2022-07-21T11:58:46;100738.88;;;25.66;49.23
51439;BME280;38816;51.142;-0.974;2022-07-21T12:01:11;100739.94;;;25.86;48.26
51439;BME280;38816;51.142;-0.974;2022-07-21T12:03:49;100734.59;;;25.87;48.06
51439;BME280;38816;51.142;-0.974;2022-07-21T12:06:16;100736.03;;;25.96;47.89
51439;BME280;38816;51.142;-0.974;2022-07-21T12:08:43;100740.44;;;25.95;47.75
51439;BME280;38816;51.142;-0.974;2022-07-21T12:11:10;100747.84;;;25.86;48.53
51439;BME280;38816;51.142;-0.974;2022-07-21T12:13:56;100745.59;;;25.98;48.26
51439;BME280;38816;51.142;-0.974;2022-07-21T12:16:22;100746.09;;;26.08;47.39
51439;BME280;38816;51.142;-0.974;2022-07-21T12:18:47;100747.31;;;25.99;47.67
51439;BME280;38816;51.142;-0.974;2022-07-21T12:21:13;100741.78;;;26.06;47.27
51439;BME280;38816;51.142;-0.974;2022-07-21T12:23:38;100742.88;;;26.00;47.12
51439;BME280;38816;51.142;-0.974;2022-07-21T12:26:04;100734.34;;;25.93;48.29
51439;BME280;38816;51.142;-0.974;2022-07-21T12:28:42;100746.09;;;26.08;48.39
51439;BME280;38816;51.142;-0.974;2022-07-21T12:31:11;100743.00;;;26.19;47.75
51439;BME280;38816;51.142;-0.974;2022-07-21T12:33:39;100744.88;;;26.17;46.54
51439;BME280;38816;51.142;-0.974;2022-07-21T12:36:07;100741.47;;;26.35;47.66
51439;BME280;38816;51.142;-0.974;2022-07-21T12:38:46;100735.59;;;26.29;46.04
51439;BME280;38816;51.142;-0.974;2022-07-21T12:41:17;100721.53;;;26.28;46.68
51439;BME280;38816;51.142;-0.974;2022-07-21T12:43:43;100726.03;;;26.68;46.95
51439;BME280;38816;51.142;-0.974;2022-07-21T12:46:15;100738.06;;;27.16;45.75
51439;BME280;38816;51.142;-0.974;2022-07-21T12:48:42;100718.84;;;27.52;45.03
51439;BME280;38816;51.142;-0.974;2022-07-21T12:51:22;100716.69;;;27.60;43.95
51439;BME280;38816;51.142;-0.974;2022-07-21T12:53:51;100725.84;;;27.53;43.22
51439;BME280;38816;51.142;-0.974;2022-07-21T12:56:23;100731.09;;;27.34;44.58
51439;BME280;38816;51.142;-0.974;2022-07-21T12:58:52;100726.69;;;27.14;45.79
51439;BME280;38816;51.142;-0.974;2022-07-21T13:01:19;100733.16;;;27.07;45.73
51439;BME280;38816;51.142;-0.974;2022-07-21T13:03:45;100737.59;;;27.07;46.52
51439;BME280;38816;51.142;-0.974;2022-07-21T13:06:11;100718.59;;;26.78;46.01